Time;durP1;ratioP1;P1;durP2;ratioP2;P2;SDS_P1;SDS_P2;PMS_P1;PMS_P2;Temp;Humidity;BMP_temperature;BMP_pressure;BME280_temperature;BME280_humidity;BME280_pressure;Samples;Min_cycle;Max_cycle;Signal;HPM_P1;HPM_P2
2023/09/04 05:50:28;;;;;;;5.88;3.90;;;23.20;63.80;;;;;;4992008;28;20204;-51
2023/09/04 05:52:54;;;;;;;5.63;4.55;;;23.20;63.10;;;;;;4992133;28;20042;-55
2023/09/04 05:55:19;;;;;;;5.97;4.53;;;23.20;62.60;;;;;;4992056;28;20073;-54
2023/09/04 05:57:45;;;;;;;7.53;4.20;;;23.20;62.90;;;;;;4992269;28;20093;-50
2023/09/04 06:00:11;;;;;;;5.07;4.20;;;23.10;62.90;;;;;;4992140;28;20026;-53
2023/09/04 06:02:37;;;;;;;7.07;4.22;;;23.00;62.80;;;;;;4992442;28;20038;-52
2023/09/04 06:05:03;;;;;;;4.60;3.80;;;23.10;63.10;;;;;;4992041;28;20037;-54
2023/09/04 06:07:30;;;;;;;5.65;4.60;;;23.00;63.00;;;;;;4992300;28;20435;-53
2023/09/04 06:09:55;;;;;;;6.03;4.25;;;23.00;62.70;;;;;;4992248;28;20030;-54
2023/09/04 06:12:21;;;;;;;5.47;4.07;;;23.00;63.30;;;;;;4991975;28;20475;-54
2023/09/04 06:14:47;;;;;;;5.50;3.60;;;23.00;63.30;;;;;;4992196;28;20026;-55
2023/09/04 06:17:12;;;;;;;4.40;3.50;;;23.00;63.20;;;;;;4990910;28;20062;-52
2023/09/04 06:19:38;;;;;;;4.72;4.00;;;23.10;63.20;;;;;;4991911;28;20398;-53
2023/09/04 06:22:04;;;;;;;4.25;3.60;;;23.10;62.80;;;;;;4991864;28;20089;-54
2023/09/04 06:24:29;;;;;;;6.95;4.13;;;23.10;62.70;;;;;;4991829;28;20034;-53
2023/09/04 06:26:55;;;;;;;5.07;3.72;;;23.20;63.00;;;;;;4991234;28;20031;-55
2023/09/04 06:29:21;;;;;;;5.13;3.42;;;23.30;62.80;;;;;;4990354;28;20037;-54
2023/09/04 06:31:47;;;;;;;5.50;4.30;;;23.30;62.60;;;;;;4991433;28;20022;-52
2023/09/04 06:34:13;;;;;;;6.45;4.10;;;23.40;62.70;;;;;;4992241;28;20462;-52
2023/09/04 06:36:38;;;;;;;4.40;3.63;;;23.40;62.40;;;;;;4990531;28;20542;-54
2023/09/04 06:39:04;;;;;;;4.53;3.83;;;23.40;62.70;;;;;;4982414;28;20089;-53
2023/09/04 06:41:32;;;;;;;4.30;3.85;;;23.50;62.60;;;;;;4991779;28;20089;-52
2023/09/04 06:43:58;;;;;;;4.50;3.78;;;23.60;62.40;;;;;;4991788;28;20034;-52
2023/09/04 06:46:23;;;;;;;6.82;3.90;;;23.60;62.50;;;;;;4989939;28;20506;-54
2023/09/04 06:48:49;;;;;;;4.47;3.92;;;23.60;62.40;;;;;;4991758;28;20423;-53
2023/09/04 06:51:16;;;;;;;7.05;3.88;;;23.60;62.00;;;;;;4994285;28;20045;-54
2023/09/04 06:53:42;;;;;;;5.13;3.80;;;23.70;62.10;;;;;;5010055;28;20580;-53
2023/09/04 06:56:07;;;;;;;4.22;3.83;;;23.70;62.10;;;;;;5009020;28;20030;-52
2023/09/04 06:58:33;;;;;;;5.03;3.80;;;23.80;62.20;;;;;;4993755;28;20038;-51
2023/09/04 07:01:02;;;;;;;5.47;3.78;;;23.80;61.70;;;;;;4990524;28;20386;-54
2023/09/04 07:03:29;;;;;;;4.22;3.70;;;23.90;61.40;;;;;;4990813;28;20042;-53
2023/09/04 07:05:54;;;;;;;4.72;3.45;;;23.90;61.30;;;;;;4990355;28;20034;-54
2023/09/04 07:08:20;;;;;;;5.45;3.53;;;24.00;61.30;;;;;;4990581;28;20109;-54
2023/09/04 07:10:47;;;;;;;4.97;3.75;;;24.00;60.60;;;;;;4988580;28;20022;-54
2023/09/04 07:13:13;;;;;;;6.13;3.80;;;24.00;60.60;;;;;;4988010;28;20058;-52
2023/09/04 07:15:40;;;;;;;5.50;3.83;;;24.00;60.60;;;;;;4989786;28;20022;-54
2023/09/04 07:18:07;;;;;;;7.15;3.25;;;24.10;60.50;;;;;;4990292;28;20041;-51
2023/09/04 07:20:32;;;;;;;4.88;3.75;;;24.10;59.90;;;;;;4991025;28;20036;-53
2023/09/04 07:22:58;;;;;;;4.60;3.25;;;24.10;60.00;;;;;;4990974;28;20030;-53
2023/09/04 07:25:24;;;;;;;4.55;3.15;;;24.10;59.90;;;;;;4977220;28;20518;-52
2023/09/04 07:27:49;;;;;;;4.72;3.40;;;24.10;59.40;;;;;;4994004;28;20031;-51
2023/09/04 07:30:15;;;;;;;6.57;3.50;;;24.10;59.50;;;;;;4992454;28;20026;-53
2023/09/04 07:32:41;;;;;;;6.35;3.55;;;24.10;59.30;;;;;;4994477;28;20565;-52
2023/09/04 07:35:07;;;;;;;3.80;3.15;;;24.10;59.20;;;;;;4994390;28;20486;-52
2023/09/04 07:37:32;;;;;;;4.25;3.30;;;24.10;59.10;;;;;;4993554;28;20106;-53
2023/09/04 07:39:58;;;;;;;3.45;3.00;;;24.20;58.60;;;;;;4989288;28;20474;-52
2023/09/04 07:42:24;;;;;;;4.32;3.13;;;24.20;58.50;;;;;;4975045;28;20035;-54
2023/09/04 07:44:50;;;;;;;5.20;3.28;;;24.20;58.50;;;;;;4988748;28;20110;-53
2023/09/04 07:47:16;;;;;;;3.80;3.45;;;24.20;58.40;;;;;;4987757;28;20125;-52
2023/09/04 07:49:42;;;;;;;3.67;3.20;;;24.30;58.30;;;;;;4986531;28;20042;-53
2023/09/04 07:52:08;;;;;;;3.90;2.83;;;24.30;58.40;;;;;;4992888;28;20045;-54
2023/09/04 07:54:34;;;;;;;4.28;3.33;;;24.30;57.90;;;;;;4993701;28;20074;-53
2023/09/04 07:57:02;;;;;;;3.53;3.00;;;24.30;57.40;;;;;;4991256;28;20476;-53
2023/09/04 07:59:28;;;;;;;3.97;3.28;;;24.30;57.50;;;;;;5000522;28;20057;-53
2023/09/04 08:01:54;;;;;;;3.65;2.97;;;24.30;57.60;;;;;;4995812;28;20026;-53
2023/09/04 08:04:19;;;;;;;4.82;3.00;;;24.30;57.30;;;;;;4991835;28;20034;-53
2023/09/04 08:06:45;;;;;;;4.75;3.00;;;24.30;57.60;;;;;;4983343;28;20442;-53
2023/09/04 08:09:11;;;;;;;5.57;3.08;;;24.30;57.10;;;;;;4984394;28;20023;-54
2023/09/04 08:11:36;;;;;;;4.05;2.97;;;24.30;57.40;;;;;;4979211;28;20034;-54
2023/09/04 08:14:02;;;;;;;5.30;3.40;;;24.30;57.40;;;;;;4993606;28;20490;-55
2023/09/04 08:16:28;;;;;;;4.85;2.95;;;24.40;57.60;;;;;;4991857;28;20030;-52
2023/09/04 08:18:53;;;;;;;4.00;3.10;;;24.40;56.70;;;;;;4991970;28;20534;-53
2023/09/04 08:21:19;;;;;;;5.28;3.38;;;24.40;56.20;;;;;;4989564;28;20069;-52
2023/09/04 08:23:45;;;;;;;3.90;3.05;;;24.40;56.40;;;;;;4990503;28;20037;-54
2023/09/04 08:29:32;;;;;;;4.45;3.13;;;24.50;56.00;;;;;;4978289;28;20036;-51
2023/09/04 08:31:58;;;;;;;3.47;3.00;;;24.50;56.00;;;;;;4985354;28;20042;-52
2023/09/04 08:34:24;;;;;;;3.47;2.63;;;24.50;56.00;;;;;;4984850;28;20556;-53
2023/09/04 08:36:50;;;;;;;3.78;2.80;;;24.50;55.50;;;;;;4987051;28;20034;-52
2023/09/04 08:39:15;;;;;;;4.50;2.80;;;24.50;55.90;;;;;;4987181;28;20033;-53
2023/09/04 08:41:42;;;;;;;5.25;2.88;;;24.50;55.50;;;;;;4987311;28;20537;-52
2023/09/04 08:44:08;;;;;;;3.75;2.88;;;24.50;55.00;;;;;;4988562;28;20034;-52
2023/09/04 08:46:35;;;;;;;3.00;2.70;;;24.50;54.70;;;;;;4981387;28;20035;-52
2023/09/04 08:49:02;;;;;;;3.42;3.00;;;24.60;54.40;;;;;;4989418;28;20019;-51
2023/09/04 08:51:28;;;;;;;3.80;3.08;;;24.50;55.00;;;;;;4996775;28;20026;-52
2023/09/04 08:53:56;;;;;;;5.72;2.97;;;24.60;54.80;;;;;;5007038;28;20045;-51
2023/09/04 08:56:22;;;;;;;4.93;3.10;;;24.60;54.60;;;;;;5001157;28;20394;-50
2023/09/04 08:58:47;;;;;;;3.97;3.03;;;24.60;54.10;;;;;;5001541;28;20034;-52
2023/09/04 09:01:15;;;;;;;3.83;2.80;;;24.60;54.30;;;;;;5015273;28;20029;-53
2023/09/04 09:03:42;;;;;;;3.50;2.80;;;24.70;54.80;;;;;;4984675;28;20039;-53
2023/09/04 09:06:08;;;;;;;4.32;3.10;;;24.60;54.60;;;;;;5009041;28;20014;-52
2023/09/04 09:08:35;;;;;;;4.72;2.80;;;24.60;55.00;;;;;;5008133;28;20041;-51
2023/09/04 09:11:03;;;;;;;4.20;3.47;;;24.70;54.60;;;;;;5004155;28;20036;-53
2023/09/04 09:13:29;;;;;;;5.53;3.25;;;24.60;54.80;;;;;;5010372;28;20034;-51
2023/09/04 09:15:54;;;;;;;3.55;3.13;;;24.70;55.00;;;;;;5003941;28;20032;-53
2023/09/04 09:18:39;;;;;;;4.30;3.38;;;24.70;55.50;;;;;;5002472;28;20034;-52
2023/09/04 09:21:27;;;;;;;5.60;3.85;;;24.80;55.40;;;;;;5006176;28;20036;-52
2023/09/04 09:24:09;;;;;;;5.07;3.28;;;24.80;55.10;;;;;;5008763;28;20085;-53
2023/09/04 09:26:36;;;;;;;6.45;3.40;;;24.70;55.40;;;;;;5006229;28;20096;-53
2023/09/04 09:29:03;;;;;;;3.28;2.90;;;24.70;55.60;;;;;;5005120;28;20025;-52
2023/09/04 09:31:29;;;;;;;4.43;3.33;;;24.70;55.80;;;;;;5007220;28;20088;-53
2023/09/04 09:33:55;;;;;;;4.10;2.92;;;24.70;55.20;;;;;;5008085;28;20029;-50
2023/09/04 09:36:21;;;;;;;3.90;3.25;;;24.70;55.40;;;;;;5006637;28;20036;-52
2023/09/04 09:38:47;;;;;;;5.57;3.53;;;24.70;55.50;;;;;;5009903;28;20675;-53
2023/09/04 09:41:13;;;;;;;4.03;3.28;;;24.80;55.60;;;;;;5008957;28;20030;-53
2023/09/04 09:43:40;;;;;;;3.47;3.05;;;24.80;55.50;;;;;;4999516;28;20583;-52
2023/09/04 09:46:10;;;;;;;5.28;3.08;;;24.80;55.50;;;;;;5010432;28;20066;-53
2023/09/04 09:48:36;;;;;;;3.92;2.95;;;24.80;55.10;;;;;;5004546;28;21146;-53
2023/09/04 09:51:06;;;;;;;4.93;2.72;;;24.80;54.70;;;;;;5005056;28;20041;-52
2023/09/04 09:53:49;;;;;;;3.80;3.13;;;24.80;55.00;;;;;;4984653;28;20125;-53
2023/09/04 09:56:17;;;;;;;3.97;2.83;;;24.80;54.80;;;;;;4988167;28;20033;-53
2023/09/04 09:58:45;;;;;;;3.85;3.00;;;24.80;55.10;;;;;;4983991;28;20442;-53
2023/09/04 10:01:15;;;;;;;4.07;2.75;;;24.80;53.90;;;;;;4986039;28;20093;-53
2023/09/04 10:03:43;;;;;;;3.20;2.90;;;24.80;54.40;;;;;;4982933;28;20088;-52
2023/09/04 10:06:10;;;;;;;4.60;3.10;;;24.80;55.00;;;;;;4980304;28;20078;-52
2023/09/04 10:08:49;;;;;;;8.27;3.40;;;24.80;54.70;;;;;;4988447;28;20117;-52
2023/09/04 10:11:18;;;;;;;3.95;2.75;;;24.80;55.00;;;;;;4988469;28;20090;-53
2023/09/04 10:13:49;;;;;;;3.88;2.80;;;24.80;54.90;;;;;;4986401;28;20097;-53
2023/09/04 10:16:19;;;;;;;3.50;2.80;;;24.80;54.60;;;;;;4983592;28;20038;-53
2023/09/04 10:18:52;;;;;;;2.65;2.38;;;24.80;54.80;;;;;;4983663;28;20037;-52
2023/09/04 10:21:21;;;;;;;3.95;2.78;;;24.80;54.10;;;;;;4982810;28;20026;-53
2023/09/04 10:23:58;;;;;;;4.28;2.72;;;24.80;54.40;;;;;;4987431;28;20077;-51
2023/09/04 10:26:35;;;;;;;3.58;2.65;;;24.80;54.70;;;;;;4991210;28;20026;-52
2023/09/04 10:29:08;;;;;;;2.97;2.65;;;24.80;54.70;;;;;;4991397;28;20026;-51
2023/09/04 10:31:35;;;;;;;3.30;2.67;;;24.80;54.20;;;;;;4987200;28;20041;-53
2023/09/04 10:34:02;;;;;;;2.90;2.60;;;24.80;54.00;;;;;;4985756;28;20074;-52
2023/09/04 10:36:30;;;;;;;4.25;2.72;;;24.80;54.00;;;;;;4986910;28;20455;-53
2023/09/04 10:38:59;;;;;;;3.83;2.90;;;24.80;53.90;;;;;;4988397;28;20037;-52
2023/09/04 10:41:28;;;;;;;3.78;2.88;;;24.80;53.00;;;;;;4987967;28;20113;-53
2023/09/04 10:43:53;;;;;;;3.40;2.50;;;24.80;52.90;;;;;;4996022;28;20705;-51
2023/09/04 10:46:20;;;;;;;3.17;2.75;;;24.80;53.30;;;;;;4995565;28;20034;-52
2023/09/04 10:48:48;;;;;;;3.92;2.80;;;24.80;53.60;;;;;;4987790;28;20018;-53
2023/09/04 10:51:34;;;;;;;2.67;2.40;;;24.80;54.00;;;;;;4987239;28;20035;-53
2023/09/04 10:54:07;;;;;;;4.18;2.40;;;24.90;54.50;;;;;;4988871;28;20484;-53
2023/09/04 10:56:52;;;;;;;2.83;2.55;;;24.90;54.20;;;;;;4981501;28;20041;-53
2023/09/04 10:59:17;;;;;;;2.75;2.53;;;24.90;53.90;;;;;;4986902;28;20490;-53
2023/09/04 11:01:43;;;;;;;2.60;2.35;;;24.90;53.90;;;;;;4987005;28;20065;-53
2023/09/04 11:04:09;;;;;;;3.35;2.50;;;24.90;53.80;;;;;;4987463;28;20062;-52
2023/09/04 11:06:40;;;;;;;4.63;2.72;;;24.90;53.70;;;;;;4988088;28;20058;-53
2023/09/04 11:09:11;;;;;;;3.42;2.72;;;24.80;53.70;;;;;;4986985;28;20477;-53
2023/09/04 11:11:37;;;;;;;3.50;2.60;;;24.90;53.40;;;;;;4990307;28;20026;-53
2023/09/04 11:14:09;;;;;;;3.28;2.50;;;24.90;53.50;;;;;;4992803;28;20509;-55
2023/09/04 11:16:38;;;;;;;4.55;2.58;;;25.00;54.00;;;;;;4995704;28;20031;-52
2023/09/04 11:19:13;;;;;;;4.10;3.08;;;25.00;53.80;;;;;;4995029;28;20038;-53
2023/09/04 11:21:42;;;;;;;3.47;2.40;;;25.00;54.00;;;;;;4992050;28;20038;-53
2023/09/04 11:24:08;;;;;;;3.00;2.70;;;24.90;53.60;;;;;;4988532;28;20030;-53
2023/09/04 11:26:34;;;;;;;2.60;2.30;;;24.90;53.70;;;;;;4987965;28;20436;-52
2023/09/04 11:29:07;;;;;;;3.72;2.63;;;24.90;53.30;;;;;;4984139;28;20030;-54
2023/09/04 11:31:34;;;;;;;3.45;2.42;;;24.90;52.60;;;;;;4988563;28;20409;-53
2023/09/04 11:34:01;;;;;;;2.63;2.33;;;24.90;53.00;;;;;;4989287;28;20442;-51
2023/09/04 11:36:26;;;;;;;2.72;2.40;;;25.00;54.40;;;;;;4990807;28;20066;-54
2023/09/04 11:39:12;;;;;;;3.17;2.50;;;25.00;53.10;;;;;;4993788;28;20072;-54
2023/09/04 11:41:38;;;;;;;2.60;2.40;;;25.00;52.80;;;;;;4995824;28;20281;-54
2023/09/04 11:44:06;;;;;;;5.70;2.70;;;25.00;53.60;;;;;;4995147;28;20030;-50
2023/09/04 11:46:32;;;;;;;2.95;2.47;;;25.00;54.10;;;;;;4989287;28;20026;-53
2023/09/04 11:48:58;;;;;;;3.65;2.80;;;25.00;53.90;;;;;;4995860;28;20026;-52
2023/09/04 11:51:24;;;;;;;3.15;2.47;;;25.00;53.40;;;;;;4995570;28;20033;-52
2023/09/04 11:53:50;;;;;;;3.67;2.60;;;25.00;53.40;;;;;;5013248;28;20500;-54
2023/09/04 11:56:16;;;;;;;3.83;2.70;;;25.00;53.30;;;;;;5003891;28;20065;-53
2023/09/04 11:58:41;;;;;;;3.85;2.33;;;25.00;53.40;;;;;;5004956;28;20038;-52
2023/09/04 12:01:07;;;;;;;2.83;2.42;;;25.00;53.20;;;;;;5006225;28;20088;-51
2023/09/04 12:03:34;;;;;;;3.47;2.47;;;25.00;53.70;;;;;;5010826;28;20401;-51
2023/09/04 12:06:00;;;;;;;4.25;2.30;;;25.00;53.20;;;;;;5010157;28;20112;-54
2023/09/04 12:08:25;;;;;;;3.25;2.60;;;24.90;52.90;;;;;;5009124;28;20062;-53
2023/09/04 12:10:51;;;;;;;2.80;2.17;;;25.00;53.00;;;;;;5010158;28;20034;-52
2023/09/04 12:13:17;;;;;;;2.85;2.47;;;25.00;53.40;;;;;;5010121;28;20116;-52
2023/09/04 12:15:43;;;;;;;3.15;2.47;;;24.90;53.40;;;;;;5007486;28;20401;-54
2023/09/04 12:18:10;;;;;;;3.28;2.60;;;24.90;52.60;;;;;;5010626;28;20022;-54
2023/09/04 12:20:36;;;;;;;3.90;2.58;;;24.90;53.50;;;;;;5010985;28;20112;-53
2023/09/04 12:23:03;;;;;;;3.17;2.55;;;24.90;54.20;;;;;;5012990;28;20037;-55
2023/09/04 12:25:40;;;;;;;3.88;2.60;;;24.90;54.30;;;;;;5009252;28;20427;-53
2023/09/04 12:28:13;;;;;;;4.53;2.53;;;24.90;54.00;;;;;;5007801;28;20029;-53
2023/09/04 12:30:44;;;;;;;2.53;2.30;;;25.00;53.80;;;;;;5003613;28;20061;-52
2023/09/04 12:33:16;;;;;;;3.60;2.58;;;24.90;53.70;;;;;;5009719;28;20025;-53
2023/09/04 12:35:43;;;;;;;3.65;2.95;;;25.00;53.00;;;;;;4998931;28;20123;-50
2023/09/04 12:38:10;;;;;;;3.10;2.13;;;24.90;52.60;;;;;;5008209;28;20496;-54
2023/09/04 12:40:36;;;;;;;4.22;2.60;;;24.90;52.80;;;;;;5006485;28;20390;-54
2023/09/04 12:43:03;;;;;;;4.32;2.50;;;25.00;52.40;;;;;;5010862;28;20113;-52
2023/09/04 12:45:29;;;;;;;5.38;2.65;;;25.00;52.10;;;;;;5011235;28;20520;-52
2023/09/04 12:47:57;;;;;;;3.30;2.30;;;25.00;52.20;;;;;;5008804;28;20034;-54
2023/09/04 12:50:23;;;;;;;2.75;2.50;;;25.00;52.20;;;;;;5010200;28;20541;-53
2023/09/04 12:52:49;;;;;;;4.20;2.60;;;25.00;52.50;;;;;;5010323;28;20068;-52
2023/09/04 12:55:15;;;;;;;5.68;2.60;;;25.00;53.10;;;;;;5008377;28;20125;-51
2023/09/04 12:57:41;;;;;;;7.45;2.50;;;25.00;54.10;;;;;;5008019;28;20030;-54
2023/09/04 13:00:07;;;;;;;3.97;2.70;;;25.00;54.20;;;;;;5010824;28;20034;-52
2023/09/04 13:02:33;;;;;;;3.22;2.53;;;25.00;53.80;;;;;;5014699;28;20095;-53
2023/09/04 13:04:59;;;;;;;4.35;2.65;;;25.10;53.20;;;;;;5010588;28;20099;-53
2023/09/04 13:07:25;;;;;;;4.60;2.70;;;25.10;53.50;;;;;;5015946;28;20034;-53
2023/09/04 13:09:50;;;;;;;4.35;2.88;;;25.10;53.70;;;;;;5005559;28;20068;-53
2023/09/04 13:12:16;;;;;;;2.88;2.53;;;25.10;54.00;;;;;;5002391;28;20057;-54
2023/09/04 13:14:42;;;;;;;10.80;2.90;;;25.10;54.20;;;;;;5002665;28;20018;-52
2023/09/04 13:17:08;;;;;;;3.00;2.70;;;25.10;53.90;;;;;;5007481;28;20022;-54
2023/09/04 13:19:33;;;;;;;2.60;2.28;;;25.10;53.20;;;;;;5005881;28;20034;-53
2023/09/04 13:21:59;;;;;;;2.63;2.00;;;25.10;52.70;;;;;;5009265;28;20378;-53
2023/09/04 13:24:25;;;;;;;2.88;2.50;;;25.00;52.80;;;;;;5011104;28;20045;-54
2023/09/04 13:26:50;;;;;;;3.22;2.55;;;25.00;52.90;;;;;;5009255;28;20100;-52
2023/09/04 13:29:17;;;;;;;2.63;2.38;;;25.00;53.50;;;;;;5007764;28;20114;-53
2023/09/04 13:31:42;;;;;;;5.53;2.40;;;25.00;53.10;;;;;;5007128;28;20085;-54
2023/09/04 13:34:08;;;;;;;3.20;2.70;;;25.00;52.90;;;;;;5005879;28;20777;-52
2023/09/04 13:36:34;;;;;;;3.17;2.40;;;24.90;52.20;;;;;;5009085;28;20502;-52
2023/09/04 13:39:00;;;;;;;3.05;2.30;;;24.90;52.80;;;;;;5009067;28;20109;-54
2023/09/04 13:41:26;;;;;;;3.28;2.53;;;24.90;53.50;;;;;;5007963;28;20551;-52
2023/09/04 13:43:52;;;;;;;3.80;2.45;;;24.90;52.50;;;;;;5011125;28;20037;-53
2023/09/04 13:46:18;;;;;;;3.28;2.60;;;24.90;52.50;;;;;;5011763;28;20382;-53
2023/09/04 13:48:44;;;;;;;3.67;2.47;;;24.90;52.60;;;;;;5007184;28;20060;-54
2023/09/04 13:51:09;;;;;;;2.95;2.30;;;24.80;52.80;;;;;;5019631;28;20021;-55
2023/09/04 13:53:35;;;;;;;3.10;2.65;;;24.80;53.00;;;;;;5025736;28;20045;-54
2023/09/04 13:56:01;;;;;;;3.08;2.53;;;24.80;53.00;;;;;;5009469;28;20104;-54
2023/09/04 13:58:26;;;;;;;2.60;2.40;;;24.90;53.30;;;;;;5008255;28;20030;-54
2023/09/04 14:00:52;;;;;;;5.38;2.60;;;24.80;53.50;;;;;;5005047;28;20040;-52
2023/09/04 14:03:18;;;;;;;2.35;2.15;;;24.80;53.10;;;;;;5007633;28;20029;-53
2023/09/04 14:05:43;;;;;;;3.75;2.45;;;24.80;53.10;;;;;;5007429;28;20097;-54
2023/09/04 14:11:31;;;;;;;3.63;2.55;;;24.80;53.90;;;;;;5007824;28;20056;-52
2023/09/04 14:13:56;;;;;;;3.75;2.67;;;24.80;53.90;;;;;;5011601;28;20034;-54
2023/09/04 14:16:23;;;;;;;3.58;2.42;;;24.80;54.50;;;;;;5011912;28;20049;-53
2023/09/04 14:18:50;;;;;;;4.18;2.78;;;24.70;54.20;;;;;;5011502;28;20037;-53
2023/09/04 14:21:16;;;;;;;2.63;2.42;;;24.70;54.30;;;;;;5011657;28;20096;-53
2023/09/04 14:23:42;;;;;;;5.05;2.95;;;24.70;54.70;;;;;;5011445;28;20462;-55
2023/09/04 14:26:07;;;;;;;3.58;2.60;;;24.70;54.60;;;;;;5012057;28;20030;-53
2023/09/04 14:28:35;;;;;;;3.25;2.40;;;24.70;54.60;;;;;;5011122;28;20112;-53
2023/09/04 14:31:01;;;;;;;3.35;2.78;;;24.70;54.70;;;;;;5010226;28;20101;-53
2023/09/04 14:33:26;;;;;;;3.35;2.70;;;24.70;55.60;;;;;;5009217;28;20113;-52
2023/09/04 14:36:00;;;;;;;3.88;2.72;;;24.70;55.40;;;;;;5010541;28;20393;-52
2023/09/04 14:38:25;;;;;;;4.13;3.25;;;24.70;56.40;;;;;;5010614;28;20034;-54
2023/09/04 14:40:51;;;;;;;4.55;2.80;;;24.60;56.10;;;;;;5009646;28;20093;-52
2023/09/04 14:43:16;;;;;;;3.83;2.90;;;24.60;55.80;;;;;;5008797;28;20026;-53
2023/09/04 14:45:42;;;;;;;3.92;2.72;;;24.60;56.00;;;;;;5007566;28;20489;-50
2023/09/04 14:48:08;;;;;;;4.55;3.17;;;24.60;56.10;;;;;;5008517;28;20030;-54
2023/09/04 14:50:34;;;;;;;3.95;3.28;;;24.60;56.60;;;;;;4990139;28;20041;-53
2023/09/04 14:52:59;;;;;;;4.07;2.60;;;24.60;56.70;;;;;;5009207;28;20038;-53
2023/09/04 14:55:25;;;;;;;4.80;2.78;;;24.50;56.40;;;;;;4997590;28;20050;-51
2023/09/04 14:57:55;;;;;;;6.40;2.70;;;24.50;56.40;;;;;;4992595;28;20033;-53
2023/09/04 15:00:21;;;;;;;3.67;2.50;;;24.50;55.90;;;;;;4988120;28;20398;-54
2023/09/04 15:02:47;;;;;;;3.95;2.72;;;24.50;56.20;;;;;;5008850;28;20030;-53
2023/09/04 15:05:12;;;;;;;4.22;2.90;;;24.50;56.20;;;;;;5008337;28;20505;-52
2023/09/04 15:07:38;;;;;;;3.80;3.05;;;24.50;56.10;;;;;;5009575;28;20022;-54
2023/09/04 15:10:07;;;;;;;4.47;3.03;;;24.50;55.80;;;;;;5010558;28;20029;-52
2023/09/04 15:12:33;;;;;;;3.25;2.78;;;24.50;55.90;;;;;;5010427;28;20540;-52
2023/09/04 15:14:58;;;;;;;3.67;2.80;;;24.50;56.70;;;;;;5010473;28;20030;-54
2023/09/04 15:17:24;;;;;;;9.70;2.95;;;24.50;56.80;;;;;;5010437;28;20033;-52
2023/09/04 15:19:51;;;;;;;6.60;2.90;;;24.50;57.00;;;;;;5010521;28;20068;-53
2023/09/04 15:22:17;;;;;;;3.50;2.70;;;24.50;57.40;;;;;;5011047;28;20030;-51
2023/09/04 15:24:42;;;;;;;5.38;3.20;;;24.50;57.00;;;;;;5010962;28;20032;-54
2023/09/04 15:27:08;;;;;;;4.07;3.17;;;24.40;57.50;;;;;;5010782;28;20034;-52
2023/09/04 15:29:33;;;;;;;4.22;3.10;;;24.40;58.10;;;;;;5010401;28;20037;-53
2023/09/04 15:32:01;;;;;;;3.92;3.13;;;24.40;58.20;;;;;;5010835;28;20509;-52
2023/09/04 15:34:26;;;;;;;3.58;3.00;;;24.40;59.10;;;;;;5010721;28;20040;-52
2023/09/04 15:36:52;;;;;;;4.82;3.20;;;24.40;58.80;;;;;;5010865;28;20033;-54
2023/09/04 15:39:17;;;;;;;4.60;3.22;;;24.30;58.70;;;;;;5010857;28;20044;-52
2023/09/04 15:41:43;;;;;;;5.50;3.10;;;24.30;58.70;;;;;;5010929;28;20044;-51
2023/09/04 15:44:09;;;;;;;4.07;2.80;;;24.30;58.60;;;;;;5011127;28;20089;-54
2023/09/04 15:46:34;;;;;;;4.03;3.03;;;24.30;58.60;;;;;;5010979;28;20036;-52
2023/09/04 15:49:00;;;;;;;5.57;2.92;;;24.20;58.80;;;;;;5011939;28;20029;-51
2023/09/04 15:51:26;;;;;;;5.38;3.40;;;24.20;59.50;;;;;;5014471;28;20076;-54
2023/09/04 15:53:51;;;;;;;4.82;3.40;;;24.20;59.60;;;;;;5014144;28;20252;-53
2023/09/04 15:56:17;;;;;;;3.90;3.28;;;24.10;59.60;;;;;;5014210;28;20592;-54
2023/09/04 15:58:43;;;;;;;5.15;3.20;;;24.10;59.40;;;;;;5014120;28;20037;-52
2023/09/04 16:01:08;;;;;;;5.38;3.30;;;24.10;59.20;;;;;;5014092;28;20493;-52
2023/09/04 16:03:34;;;;;;;12.07;3.55;;;24.10;58.90;;;;;;5013910;28;20037;-52
2023/09/04 16:05:59;;;;;;;4.55;3.30;;;24.10;58.70;;;;;;5012575;28;20071;-52
2023/09/04 16:08:25;;;;;;;5.15;3.08;;;24.00;58.40;;;;;;5012211;28;20026;-51
2023/09/04 16:10:51;;;;;;;5.97;3.30;;;24.00;58.60;;;;;;5012741;28;20030;-52
2023/09/04 16:13:23;;;;;;;4.95;3.55;;;24.00;59.20;;;;;;4994779;28;20022;-51
2023/09/04 16:15:49;;;;;;;3.90;2.97;;;23.90;59.70;;;;;;5012743;28;20025;-52
2023/09/04 16:18:15;;;;;;;4.72;3.53;;;23.90;59.50;;;;;;5012505;28;20037;-52
2023/09/04 16:20:45;;;;;;;4.00;3.03;;;23.90;58.70;;;;;;5013286;28;20030;-52
2023/09/04 16:23:12;;;;;;;5.80;3.28;;;23.90;59.00;;;;;;5013639;28;20033;-52
2023/09/04 16:25:38;;;;;;;5.45;3.70;;;23.80;59.10;;;;;;5013784;28;20359;-54
2023/09/04 16:28:06;;;;;;;5.07;3.63;;;23.80;59.70;;;;;;5013069;28;20048;-51
2023/09/04 16:30:32;;;;;;;5.75;3.38;;;23.80;59.70;;;;;;5012784;28;20053;-53
2023/09/04 16:32:58;;;;;;;4.85;3.85;;;23.70;59.20;;;;;;5012928;28;20054;-53
2023/09/04 16:35:23;;;;;;;4.80;3.45;;;23.70;59.80;;;;;;5012907;28;20026;-51
2023/09/04 16:37:49;;;;;;;5.43;3.70;;;23.70;60.00;;;;;;5028126;28;20026;-53
2023/09/04 16:40:15;;;;;;;5.57;3.72;;;23.70;60.10;;;;;;5013314;28;20036;-50
2023/09/04 16:42:40;;;;;;;5.93;4.00;;;23.60;59.80;;;;;;5013203;28;20541;-49
2023/09/04 16:45:06;;;;;;;4.75;3.40;;;23.60;60.00;;;;;;5013189;28;20040;-50
2023/09/04 16:47:32;;;;;;;4.82;3.33;;;23.60;59.50;;;;;;5013235;28;20048;-53
2023/09/04 16:49:58;;;;;;;4.68;3.58;;;23.60;59.40;;;;;;5013355;28;20030;-52
2023/09/04 16:52:24;;;;;;;4.68;3.47;;;23.50;59.20;;;;;;5013114;28;20054;-53
2023/09/04 16:54:50;;;;;;;5.55;3.20;;;23.50;59.40;;;;;;5013282;28;20057;-53
2023/09/04 16:57:16;;;;;;;6.13;3.83;;;23.50;59.30;;;;;;5013101;28;20022;-53
2023/09/04 16:59:41;;;;;;;5.22;3.60;;;23.50;59.00;;;;;;5012527;28;20026;-53
2023/09/04 17:02:07;;;;;;;4.78;3.50;;;23.40;59.00;;;;;;5011966;28;20064;-51
2023/09/04 17:04:33;;;;;;;5.55;3.88;;;23.40;59.30;;;;;;5012502;28;20045;-54
2023/09/04 17:06:59;;;;;;;5.35;3.85;;;23.30;59.10;;;;;;5012351;28;20097;-52
2023/09/04 17:09:25;;;;;;;6.00;3.85;;;23.30;59.20;;;;;;5012823;28;20168;-52
2023/09/04 17:11:52;;;;;;;6.50;3.70;;;23.30;58.90;;;;;;5012534;28;20036;-52
2023/09/04 17:14:18;;;;;;;5.93;3.70;;;23.30;58.80;;;;;;5012976;28;20037;-53
2023/09/04 17:16:43;;;;;;;5.10;3.75;;;23.30;58.90;;;;;;5012643;28;20026;-53
2023/09/04 17:19:09;;;;;;;5.15;3.63;;;23.30;59.50;;;;;;5012404;28;20036;-53
2023/09/04 17:21:35;;;;;;;4.82;3.08;;;23.20;58.90;;;;;;5010838;28;20080;-52
2023/09/04 17:24:00;;;;;;;5.07;3.53;;;23.20;58.80;;;;;;5011258;28;20125;-52
2023/09/04 17:26:26;;;;;;;4.75;3.25;;;23.20;58.90;;;;;;5012116;28;20104;-52
2023/09/04 17:28:52;;;;;;;6.22;3.30;;;23.20;59.20;;;;;;5012426;28;20077;-53
2023/09/04 17:31:17;;;;;;;4.63;3.15;;;23.10;59.20;;;;;;5012475;28;20541;-53
2023/09/04 17:33:43;;;;;;;5.47;3.58;;;23.10;59.60;;;;;;5012256;28;20029;-51
2023/09/04 17:36:09;;;;;;;6.70;3.70;;;23.10;59.50;;;;;;5012352;28;20381;-52
2023/09/04 17:38:35;;;;;;;5.65;3.45;;;23.10;59.40;;;;;;5012493;28;20022;-52
2023/09/04 17:41:11;;;;;;;5.75;3.25;;;23.00;59.60;;;;;;5012472;28;20044;-51
2023/09/04 17:43:38;;;;;;;6.25;3.65;;;23.00;59.40;;;;;;5012149;28;20030;-53
2023/09/04 17:46:04;;;;;;;4.75;3.92;;;23.00;60.00;;;;;;4994499;28;20113;-52
2023/09/04 17:48:30;;;;;;;6.13;3.58;;;22.90;60.20;;;;;;5012356;28;20022;-53
2023/09/04 17:50:56;;;;;;;5.35;3.72;;;22.90;60.50;;;;;;5012296;28;20393;-52
2023/09/04 17:53:22;;;;;;;4.97;3.75;;;22.90;61.10;;;;;;5011868;28;20490;-55
2023/09/04 17:55:48;;;;;;;4.90;3.80;;;22.90;61.30;;;;;;5012037;28;20112;-54
2023/09/04 17:58:14;;;;;;;5.25;3.58;;;22.90;61.50;;;;;;5012093;28;20095;-53
2023/09/04 18:00:40;;;;;;;4.30;3.90;;;22.90;61.10;;;;;;5012185;28;20509;-53
2023/09/04 18:03:06;;;;;;;4.47;3.42;;;22.80;61.50;;;;;;5011872;28;20033;-54
2023/09/04 18:05:32;;;;;;;5.75;4.25;;;22.80;61.00;;;;;;5012026;28;20030;-53
2023/09/04 18:07:59;;;;;;;7.20;4.82;;;22.80;61.30;;;;;;5011741;28;20096;-55
2023/09/04 18:10:25;;;;;;;6.03;4.47;;;22.70;61.80;;;;;;5011734;28;20041;-54
2023/09/04 18:12:50;;;;;;;7.10;4.70;;;22.80;61.80;;;;;;5011693;28;20030;-53
2023/09/04 18:15:16;;;;;;;7.95;5.13;;;22.80;62.30;;;;;;5012022;28;20037;-54
2023/09/04 18:17:42;;;;;;;6.90;5.38;;;22.70;62.70;;;;;;5011965;28;20509;-54
2023/09/04 18:20:08;;;;;;;6.70;4.32;;;22.70;62.50;;;;;;5011788;28;20080;-55
2023/09/04 18:22:34;;;;;;;8.05;4.45;;;22.70;62.70;;;;;;5011458;28;20044;-52
2023/09/04 18:25:00;;;;;;;5.03;4.25;;;22.70;62.90;;;;;;5011880;28;20390;-53
2023/09/04 18:27:26;;;;;;;5.45;3.97;;;22.60;63.20;;;;;;5011890;28;20504;-53
2023/09/04 18:29:51;;;;;;;6.32;4.38;;;22.60;63.70;;;;;;5011587;28;20041;-54
2023/09/04 18:32:17;;;;;;;6.63;5.75;;;22.60;64.10;;;;;;5011563;28;20466;-54
2023/09/04 18:34:43;;;;;;;7.18;5.50;;;22.50;64.80;;;;;;5011619;28;20022;-53
2023/09/04 18:37:08;;;;;;;7.00;5.53;;;22.50;65.50;;;;;;5011619;28;20064;-53
2023/09/04 18:39:34;;;;;;;7.85;5.68;;;22.50;65.60;;;;;;5011478;28;20030;-54
2023/09/04 18:42:01;;;;;;;8.98;5.57;;;22.50;65.90;;;;;;5011531;28;20069;-53